Time;durP1;ratioP1;P1;durP2;ratioP2;P2;SDS_P1;SDS_P2;PMS_P1;PMS_P2;Temp;Humidity;BMP_temperature;BMP_pressure;BME280_temperature;BME280_humidity;BME280_pressure;Samples;Min_cycle;Max_cycle;Signal;HPM_P1;HPM_P2
2021/05/13 00:01:47;;;;;;;15.20;11.07;;;;;;;;;;5033965;28;20427;-66
2021/05/13 00:04:13;;;;;;;16.73;10.70;;;;;;;;;;5032721;28;20438;-65
2021/05/13 00:06:39;;;;;;;17.40;11.30;;;;;;;;;;5033996;28;20459;-66
2021/05/13 00:09:07;;;;;;;17.93;11.27;;;;;;;;;;5031618;28;20526;-66
2021/05/13 00:11:35;;;;;;;15.10;10.57;;;;;;;;;;5033664;28;20469;-66
2021/05/13 00:14:02;;;;;;;16.80;12.00;;;;;;;;;;5033116;28;20832;-66
2021/05/13 00:16:30;;;;;;;15.67;11.47;;;;;;;;;;5033962;28;20398;-65
2021/05/13 00:18:57;;;;;;;14.57;10.83;;;;;;;;;;5032559;28;20795;-65
2021/05/13 00:21:23;;;;;;;13.53;11.00;;;;;;;;;;5034252;28;20514;-66
2021/05/13 00:23:50;;;;;;;19.90;10.93;;;;;;;;;;5032667;28;20537;-67
2021/05/13 00:26:24;;;;;;;16.07;10.70;;;;;;;;;;5033659;28;20978;-67
2021/05/13 00:28:50;;;;;;;15.60;10.83;;;;;;;;;;5032429;28;20418;-67
2021/05/13 00:31:16;;;;;;;16.53;11.00;;;;;;;;;;5033272;28;20415;-67
2021/05/13 00:33:42;;;;;;;17.03;11.50;;;;;;;;;;5032118;28;20458;-67
2021/05/13 00:36:08;;;;;;;16.77;11.10;;;;;;;;;;5033481;28;20402;-67
2021/05/13 00:38:34;;;;;;;14.40;10.83;;;;;;;;;;5032237;28;20517;-67
2021/05/13 00:41:00;;;;;;;16.40;10.63;;;;;;;;;;5033082;28;20828;-67
2021/05/13 00:43:26;;;;;;;15.70;10.27;;;;;;;;;;5025820;28;20897;-67
2021/05/13 00:45:52;;;;;;;20.70;9.87;;;;;;;;;;5013072;28;20453;-67
2021/05/13 00:48:18;;;;;;;17.03;11.13;;;;;;;;;;5021353;28;20422;-65
2021/05/13 00:50:44;;;;;;;17.80;12.33;;;;;;;;;;5032372;28;20422;-66
2021/05/13 00:53:11;;;;;;;16.13;11.47;;;;;;;;;;5031946;28;20429;-66
2021/05/13 00:55:38;;;;;;;19.20;11.20;;;;;;;;;;5033107;28;20411;-66
2021/05/13 00:58:06;;;;;;;16.73;12.30;;;;;;;;;;5030640;28;20438;-66
2021/05/13 01:02:59;;;;;;;20.23;12.77;;;;;;;;;;5027406;28;20443;-66
2021/05/13 01:05:25;;;;;;;19.83;12.07;;;;;;;;;;5012811;28;20459;-66
2021/05/13 01:07:52;;;;;;;23.43;11.33;;;;;;;;;;5016418;28;20421;-66
2021/05/13 01:10:18;;;;;;;18.40;12.97;;;;;;;;;;5033000;28;20407;-66
2021/05/13 01:12:46;;;;;;;17.37;11.77;;;;;;;;;;5031555;28;20909;-66
2021/05/13 01:15:23;;;;;;;20.80;11.70;;;;;;;;;;5032627;28;20876;-66
2021/05/13 01:17:59;;;;;;;22.23;13.07;;;;;;;;;;5031046;28;20426;-66
2021/05/13 01:20:26;;;;;;;14.63;10.50;;;;;;;;;;5032796;28;20427;-66
2021/05/13 01:22:53;;;;;;;16.40;12.23;;;;;;;;;;5031603;28;20411;-66
2021/05/13 01:25:19;;;;;;;16.80;11.50;;;;;;;;;;5032130;28;20462;-66
2021/05/13 01:27:46;;;;;;;13.77;9.93;;;;;;;;;;5032983;28;20765;-65
2021/05/13 01:30:12;;;;;;;15.77;11.17;;;;;;;;;;5014433;28;20470;-66
2021/05/13 01:32:38;;;;;;;11.80;9.73;;;;;;;;;;5012876;28;20419;-65
2021/05/13 01:35:05;;;;;;;16.73;11.13;;;;;;;;;;5012853;28;20427;-67
2021/05/13 01:37:31;;;;;;;13.90;10.23;;;;;;;;;;5013032;28;20416;-67
2021/05/13 01:39:57;;;;;;;12.57;9.57;;;;;;;;;;5027364;28;20544;-67
2021/05/13 01:42:23;;;;;;;15.50;10.80;;;;;;;;;;5032660;28;20782;-67
2021/05/13 01:44:49;;;;;;;11.03;9.40;;;;;;;;;;5030433;28;20418;-67
2021/05/13 01:47:15;;;;;;;13.57;9.70;;;;;;;;;;5032771;28;20793;-67
2021/05/13 01:49:41;;;;;;;12.57;10.03;;;;;;;;;;5031141;28;20818;-67
2021/05/13 01:52:07;;;;;;;12.70;9.63;;;;;;;;;;5032499;28;20426;-67
2021/05/13 01:54:33;;;;;;;16.33;11.73;;;;;;;;;;5030928;28;20995;-67
2021/05/13 01:57:06;;;;;;;13.53;9.90;;;;;;;;;;5032558;28;20430;-67
2021/05/13 01:59:33;;;;;;;16.03;11.93;;;;;;;;;;5025340;28;20424;-67
2021/05/13 02:01:59;;;;;;;14.97;9.67;;;;;;;;;;5014668;28;20529;-67
2021/05/13 02:04:26;;;;;;;13.50;8.93;;;;;;;;;;5021176;28;20422;-67
2021/05/13 02:06:52;;;;;;;8.30;6.93;;;;;;;;;;5035879;28;20585;-67
2021/05/13 02:09:18;;;;;;;14.80;9.63;;;;;;;;;;5034717;28;20411;-67
2021/05/13 02:11:44;;;;;;;13.67;8.23;;;;;;;;;;5034586;28;20427;-67
2021/05/13 02:14:11;;;;;;;13.17;9.70;;;;;;;;;;5035404;28;20765;-67
2021/05/13 02:16:37;;;;;;;14.90;10.43;;;;;;;;;;5035850;28;20771;-67
2021/05/13 02:19:03;;;;;;;14.53;10.53;;;;;;;;;;5034666;28;20394;-67
2021/05/13 02:21:30;;;;;;;14.30;9.63;;;;;;;;;;5035921;28;20482;-67
2021/05/13 02:23:56;;;;;;;15.80;9.37;;;;;;;;;;5034891;28;20861;-68
2021/05/13 02:26:22;;;;;;;12.67;8.80;;;;;;;;;;5035394;28;20458;-67
2021/05/13 02:28:48;;;;;;;11.80;9.27;;;;;;;;;;5034262;28;20409;-67
2021/05/13 02:31:15;;;;;;;10.43;8.47;;;;;;;;;;5034876;28;20438;-67
2021/05/13 02:33:42;;;;;;;10.30;7.43;;;;;;;;;;5035769;28;20403;-67
2021/05/13 02:36:08;;;;;;;11.67;7.70;;;;;;;;;;5034534;28;20936;-67
2021/05/13 02:38:35;;;;;;;12.50;9.57;;;;;;;;;;5035475;28;20407;-67
2021/05/13 02:41:01;;;;;;;11.90;9.30;;;;;;;;;;5033304;28;20446;-67
2021/05/13 02:43:28;;;;;;;15.57;10.03;;;;;;;;;;5034164;28;20434;-67
2021/05/13 02:45:54;;;;;;;13.67;10.60;;;;;;;;;;5032795;28;20447;-67
2021/05/13 02:48:20;;;;;;;12.90;9.90;;;;;;;;;;5035720;28;20411;-67
2021/05/13 02:50:46;;;;;;;18.97;8.80;;;;;;;;;;5033372;28;20447;-67
2021/05/13 02:53:13;;;;;;;14.17;8.83;;;;;;;;;;5035182;28;20399;-67
2021/05/13 02:55:40;;;;;;;15.10;10.47;;;;;;;;;;5021713;28;20420;-67
2021/05/13 02:58:06;;;;;;;12.70;9.00;;;;;;;;;;5015520;28;20776;-67
2021/05/13 03:00:38;;;;;;;15.20;9.33;;;;;;;;;;5024475;28;20446;-67
2021/05/13 03:03:04;;;;;;;15.30;9.77;;;;;;;;;;5034904;28;20394;-67
2021/05/13 03:05:31;;;;;;;11.53;8.00;;;;;;;;;;5033947;28;20906;-67
2021/05/13 03:08:01;;;;;;;13.80;9.23;;;;;;;;;;5035058;28;20403;-67
2021/05/13 03:12:56;;;;;;;13.63;9.33;;;;;;;;;;5034273;28;20884;-67
2021/05/13 03:15:23;;;;;;;13.97;9.97;;;;;;;;;;5027307;28;20514;-67
2021/05/13 03:17:50;;;;;;;12.00;8.30;;;;;;;;;;5034875;28;20399;-67
2021/05/13 03:20:19;;;;;;;16.00;10.30;;;;;;;;;;5033640;28;20419;-67
2021/05/13 03:22:47;;;;;;;14.50;10.10;;;;;;;;;;5034545;28;20415;-67
2021/05/13 03:25:14;;;;;;;13.70;9.90;;;;;;;;;;5032799;28;20458;-67
2021/05/13 03:30:08;;;;;;;14.40;9.40;;;;;;;;;;5033636;28;20476;-67
2021/05/13 03:32:34;;;;;;;17.33;10.97;;;;;;;;;;5034400;28;20818;-67
2021/05/13 03:35:00;;;;;;;14.17;9.33;;;;;;;;;;5033480;28;21004;-67
2021/05/13 03:37:28;;;;;;;16.13;9.53;;;;;;;;;;5034198;28;20888;-67
2021/05/13 03:39:57;;;;;;;18.57;11.70;;;;;;;;;;5033307;28;20499;-67
2021/05/13 03:42:23;;;;;;;14.70;10.43;;;;;;;;;;5034504;28;20422;-67
2021/05/13 03:44:51;;;;;;;11.10;9.20;;;;;;;;;;5031371;28;20508;-67
2021/05/13 03:47:17;;;;;;;14.03;9.00;;;;;;;;;;5034467;28;20414;-67
2021/05/13 03:49:43;;;;;;;12.00;9.30;;;;;;;;;;5021915;28;20459;-67
2021/05/13 03:52:09;;;;;;;12.47;8.80;;;;;;;;;;5032355;28;20870;-67
2021/05/13 03:54:35;;;;;;;12.70;9.43;;;;;;;;;;5034763;28;20469;-67
2021/05/13 03:57:02;;;;;;;13.17;8.40;;;;;;;;;;5030729;28;20457;-67
2021/05/13 03:59:33;;;;;;;12.77;9.10;;;;;;;;;;5032127;28;20520;-67
2021/05/13 04:02:23;;;;;;;11.83;8.53;;;;;;;;;;5032295;28;20542;-66
2021/05/13 04:04:49;;;;;;;13.20;8.40;;;;;;;;;;5034054;28;20383;-66
2021/05/13 04:07:15;;;;;;;13.57;9.70;;;;;;;;;;5030779;28;20422;-66
2021/05/13 04:09:41;;;;;;;12.50;8.80;;;;;;;;;;5014111;28;20479;-65
2021/05/13 04:12:07;;;;;;;14.03;9.93;;;;;;;;;;5014704;28;20427;-66
2021/05/13 04:14:33;;;;;;;12.77;10.07;;;;;;;;;;5034267;28;20391;-65
2021/05/13 04:17:01;;;;;;;12.03;8.77;;;;;;;;;;5025581;28;20423;-66
2021/05/13 04:19:27;;;;;;;11.27;9.07;;;;;;;;;;5013833;28;20498;-65
2021/05/13 04:21:53;;;;;;;12.90;9.43;;;;;;;;;;5014023;28;20455;-65
2021/05/13 04:24:19;;;;;;;10.03;8.33;;;;;;;;;;5013589;28;20451;-65
2021/05/13 04:26:46;;;;;;;12.47;7.97;;;;;;;;;;5013718;28;20570;-65
2021/05/13 04:29:13;;;;;;;11.60;9.40;;;;;;;;;;5030661;28;20422;-65
2021/05/13 04:31:39;;;;;;;12.30;8.30;;;;;;;;;;5032318;28;20438;-66
2021/05/13 04:34:05;;;;;;;15.83;9.43;;;;;;;;;;5016196;28;20497;-66
2021/05/13 04:36:31;;;;;;;13.07;9.00;;;;;;;;;;5013514;28;20400;-66
2021/05/13 04:38:57;;;;;;;12.27;9.30;;;;;;;;;;5028621;28;20799;-66
2021/05/13 04:41:25;;;;;;;11.73;9.17;;;;;;;;;;5033200;28;20449;-66
2021/05/13 04:43:51;;;;;;;14.10;8.90;;;;;;;;;;5032301;28;20823;-66
2021/05/13 04:46:18;;;;;;;10.93;7.97;;;;;;;;;;5033034;28;20470;-66
2021/05/13 04:51:17;;;;;;;16.27;10.00;;;;;;;;;;5027745;28;20450;-66
2021/05/13 04:53:44;;;;;;;13.60;9.10;;;;;;;;;;5031961;28;20423;-66
2021/05/13 04:56:10;;;;;;;11.73;9.17;;;;;;;;;;5033310;28;20482;-66
2021/05/13 04:58:36;;;;;;;12.87;9.67;;;;;;;;;;5020936;28;20755;-66
2021/05/13 05:01:02;;;;;;;14.53;9.43;;;;;;;;;;5013224;28;20825;-66
2021/05/13 05:03:28;;;;;;;19.47;8.83;;;;;;;;;;5021794;28;20861;-66
2021/05/13 05:05:54;;;;;;;12.70;9.83;;;;;;;;;;5032993;28;20989;-65
2021/05/13 05:08:20;;;;;;;12.83;9.40;;;;;;;;;;5023282;28;20428;-65
2021/05/13 05:10:46;;;;;;;11.87;8.53;;;;;;;;;;5013210;28;20923;-66
2021/05/13 05:13:12;;;;;;;12.37;9.67;;;;;;;;;;5020576;28;20501;-66
2021/05/13 05:15:38;;;;;;;12.60;8.73;;;;;;;;;;5033915;28;20743;-65
2021/05/13 05:18:05;;;;;;;12.90;9.33;;;;;;;;;;5030953;28;20428;-66
2021/05/13 05:20:31;;;;;;;11.53;9.13;;;;;;;;;;5033120;28;20561;-66
2021/05/13 05:22:57;;;;;;;12.90;8.80;;;;;;;;;;5032018;28;20766;-66
2021/05/13 05:25:23;;;;;;;14.63;9.10;;;;;;;;;;5033088;28;20876;-65
2021/05/13 05:27:49;;;;;;;10.30;7.60;;;;;;;;;;5032765;28;20391;-65
2021/05/13 05:30:15;;;;;;;12.17;8.70;;;;;;;;;;5032189;28;20419;-66
2021/05/13 05:32:41;;;;;;;13.97;9.90;;;;;;;;;;5033025;28;20811;-65
2021/05/13 05:35:08;;;;;;;13.43;8.90;;;;;;;;;;5031563;28;20938;-66
2021/05/13 05:37:34;;;;;;;10.80;7.30;;;;;;;;;;5034153;28;20402;-66
2021/05/13 05:40:02;;;;;;;13.23;8.83;;;;;;;;;;5029420;28;20450;-66
2021/05/13 05:42:28;;;;;;;12.80;10.03;;;;;;;;;;5036390;28;20409;-67
2021/05/13 05:44:55;;;;;;;11.03;8.30;;;;;;;;;;5032914;28;20796;-67
2021/05/13 05:47:21;;;;;;;10.57;8.40;;;;;;;;;;5037168;28;20935;-65
2021/05/13 05:49:47;;;;;;;10.83;9.00;;;;;;;;;;5034379;28;20446;-65
2021/05/13 05:52:13;;;;;;;12.85;10.10;;;;;;;;;;5034565;28;20484;-71
2021/05/13 05:54:39;;;;;;;12.70;9.50;;;;;;;;;;5034821;28;20183;-70
2021/05/13 05:57:06;;;;;;;12.40;8.93;;;;;;;;;;5035808;28;20430;-69
2021/05/13 05:59:32;;;;;;;13.30;9.10;;;;;;;;;;5034655;28;20992;-69
2021/05/13 06:01:58;;;;;;;15.30;9.03;;;;;;;;;;5035112;28;20474;-70
2021/05/13 06:04:24;;;;;;;12.63;9.60;;;;;;;;;;5035095;28;20426;-69
2021/05/13 06:06:50;;;;;;;11.63;8.17;;;;;;;;;;5036148;28;20457;-68
2021/05/13 06:09:16;;;;;;;12.13;8.13;;;;;;;;;;5033865;28;20939;-68
2021/05/13 06:11:42;;;;;;;13.20;10.13;;;;;;;;;;5035379;28;20421;-68
2021/05/13 06:14:08;;;;;;;13.83;9.23;;;;;;;;;;5030655;28;20414;-66
2021/05/13 06:16:34;;;;;;;11.90;7.57;;;;;;;;;;5033271;28;20476;-67
2021/05/13 06:19:00;;;;;;;15.40;9.40;;;;;;;;;;5021886;28;20961;-67
2021/05/13 06:21:27;;;;;;;12.37;8.33;;;;;;;;;;5035403;28;20833;-66
2021/05/13 06:23:54;;;;;;;11.40;8.77;;;;;;;;;;5026856;28;20522;-67
2021/05/13 06:26:27;;;;;;;10.43;7.70;;;;;;;;;;5035317;28;20458;-66
2021/05/13 06:28:53;;;;;;;12.30;8.43;;;;;;;;;;5022823;28;20416;-67
2021/05/13 06:31:19;;;;;;;13.03;9.13;;;;;;;;;;5035011;28;20444;-69
2021/05/13 06:33:46;;;;;;;12.60;9.37;;;;;;;;;;5034552;28;20426;-67
2021/05/13 06:36:12;;;;;;;12.10;8.57;;;;;;;;;;5034333;28;20456;-66
2021/05/13 06:38:38;;;;;;;13.83;8.30;;;;;;;;;;5034788;28;20172;-66
2021/05/13 06:41:06;;;;;;;21.20;9.47;;;;;;;;;;5033745;28;20442;-68
2021/05/13 06:43:32;;;;;;;11.67;8.00;;;;;;;;;;5035337;28;20441;-68
2021/05/13 06:45:59;;;;;;;9.73;8.03;;;;;;;;;;5032291;28;20468;-64
2021/05/13 06:48:25;;;;;;;10.77;8.23;;;;;;;;;;5033400;28;20454;-66
2021/05/13 06:50:51;;;;;;;11.70;9.10;;;;;;;;;;5032750;28;20434;-65
2021/05/13 06:53:17;;;;;;;11.00;6.97;;;;;;;;;;5034582;28;20456;-65
2021/05/13 06:55:43;;;;;;;7.50;6.57;;;;;;;;;;5033784;28;20422;-66
2021/05/13 06:58:09;;;;;;;11.90;8.43;;;;;;;;;;5034527;28;20418;-66
2021/05/13 07:00:35;;;;;;;18.07;8.40;;;;;;;;;;5032044;28;20524;-66
2021/05/13 07:03:01;;;;;;;9.17;6.70;;;;;;;;;;5034648;28;20414;-67
2021/05/13 07:05:27;;;;;;;12.30;7.60;;;;;;;;;;5033361;28;20451;-66
2021/05/13 07:07:53;;;;;;;10.53;8.13;;;;;;;;;;5034094;28;20490;-65
2021/05/13 07:10:19;;;;;;;11.07;6.97;;;;;;;;;;5031155;28;20414;-65
2021/05/13 07:12:46;;;;;;;11.23;8.23;;;;;;;;;;5034501;28;20407;-67
2021/05/13 07:15:12;;;;;;;9.40;6.67;;;;;;;;;;5033814;28;20818;-69
2021/05/13 07:17:38;;;;;;;9.00;7.40;;;;;;;;;;5033020;28;20455;-64
2021/05/13 07:20:05;;;;;;;12.83;8.30;;;;;;;;;;5032665;28;20423;-62
2021/05/13 07:22:31;;;;;;;13.17;8.13;;;;;;;;;;5034683;28;20407;-63
2021/05/13 07:24:57;;;;;;;11.63;6.60;;;;;;;;;;5032923;28;20501;-63
2021/05/13 07:27:23;;;;;;;10.00;6.63;;;;;;;;;;5034233;28;20415;-63
2021/05/13 07:29:49;;;;;;;6.43;5.77;;;;;;;;;;5033171;28;20433;-62
2021/05/13 07:32:15;;;;;;;8.67;6.83;;;;;;;;;;5033938;28;20505;-63
2021/05/13 07:34:41;;;;;;;15.10;7.13;;;;;;;;;;5034362;28;20415;-62
2021/05/13 07:37:07;;;;;;;10.23;6.80;;;;;;;;;;5030334;28;20434;-63
2021/05/13 07:39:33;;;;;;;11.50;6.60;;;;;;;;;;5034145;28;20411;-64
2021/05/13 07:41:59;;;;;;;10.77;7.37;;;;;;;;;;5032880;28;20446;-67
2021/05/13 07:44:26;;;;;;;11.07;6.67;;;;;;;;;;5038440;28;20439;-67
2021/05/13 07:46:54;;;;;;;11.60;7.30;;;;;;;;;;5031775;28;20482;-68
2021/05/13 07:49:20;;;;;;;9.23;6.63;;;;;;;;;;5034813;28;20415;-67
2021/05/13 07:51:46;;;;;;;11.37;6.10;;;;;;;;;;5027015;22;20538;-76
2021/05/13 07:54:13;;;;;;;10.50;7.13;;;;;;;;;;4995335;28;20397;-75
2021/05/13 07:56:39;;;;;;;8.93;6.20;;;;;;;;;;4992616;28;20475;-70
2021/05/13 07:59:05;;;;;;;10.63;7.20;;;;;;;;;;4994487;28;20483;-70
2021/05/13 08:01:31;;;;;;;8.50;7.10;;;;;;;;;;4992946;28;20972;-67
2021/05/13 08:03:57;;;;;;;10.03;6.37;;;;;;;;;;4992741;28;20416;-69
2021/05/13 08:06:24;;;;;;;8.33;6.23;;;;;;;;;;4992755;28;20476;-69
2021/05/13 08:08:50;;;;;;;9.80;6.77;;;;;;;;;;4991702;28;20475;-68
2021/05/13 08:11:16;;;;;;;9.90;7.23;;;;;;;;;;4992752;28;20440;-69
2021/05/13 08:13:42;;;;;;;8.00;6.30;;;;;;;;;;4994342;28;20484;-69
2021/05/13 08:16:08;;;;;;;8.50;6.07;;;;;;;;;;4987789;28;20487;-69
2021/05/13 08:18:34;;;;;;;7.70;6.40;;;;;;;;;;4974814;28;20709;-69
2021/05/13 08:21:01;;;;;;;8.63;5.70;;;;;;;;;;4978990;28;20484;-68
2021/05/13 08:23:27;;;;;;;10.60;6.27;;;;;;;;;;4994255;28;20405;-68
2021/05/13 08:25:53;;;;;;;7.53;5.70;;;;;;;;;;4993283;28;20464;-68
2021/05/13 08:28:19;;;;;;;9.00;6.27;;;;;;;;;;4993985;28;20412;-68
2021/05/13 08:30:45;;;;;;;8.00;6.40;;;;;;;;;;4993024;28;20936;-68
2021/05/13 08:33:11;;;;;;;12.47;5.50;;;;;;;;;;4993870;28;20405;-68
2021/05/13 08:35:37;;;;;;;8.03;5.30;;;;;;;;;;4992753;28;20409;-68
2021/05/13 08:38:03;;;;;;;8.63;5.80;;;;;;;;;;4983833;28;20429;-69
2021/05/13 08:40:29;;;;;;;9.53;5.50;;;;;;;;;;4974382;28;20433;-68
2021/05/13 08:42:55;;;;;;;9.33;5.53;;;;;;;;;;4992575;28;20468;-68
2021/05/13 08:45:21;;;;;;;9.97;5.90;;;;;;;;;;4993546;28;20514;-69
2021/05/13 08:47:47;;;;;;;7.70;5.27;;;;;;;;;;4991898;28;20432;-69
2021/05/13 08:50:18;;;;;;;7.20;5.33;;;;;;;;;;4992488;28;20933;-68
2021/05/13 08:52:44;;;;;;;16.60;5.47;;;;;;;;;;4990078;28;20420;-68
2021/05/13 08:55:10;;;;;;;9.20;5.70;;;;;;;;;;4980389;28;20505;-68
2021/05/13 08:57:36;;;;;;;7.20;5.50;;;;;;;;;;4988635;28;20421;-68
2021/05/13 09:00:05;;;;;;;9.93;5.40;;;;;;;;;;4993827;28;20480;-68
2021/05/13 09:02:31;;;;;;;5.60;4.27;;;;;;;;;;4978526;28;20457;-69
2021/05/13 09:04:58;;;;;;;6.63;4.70;;;;;;;;;;4974111;28;20486;-69
2021/05/13 09:07:27;;;;;;;6.73;5.33;;;;;;;;;;4985882;28;20435;-69
2021/05/13 09:10:01;;;;;;;7.03;4.63;;;;;;;;;;4992538;28;20409;-68
2021/05/13 09:12:28;;;;;;;5.80;4.47;;;;;;;;;;4987580;28;20501;-68
2021/05/13 09:14:59;;;;;;;5.90;3.70;;;;;;;;;;4991982;28;20491;-69
2021/05/13 09:17:26;;;;;;;5.47;4.37;;;;;;;;;;4992486;28;20431;-69
2021/05/13 09:19:52;;;;;;;9.23;3.77;;;;;;;;;;4975172;28;20780;-69
2021/05/13 09:22:23;;;;;;;8.50;3.87;;;;;;;;;;4983484;28;20567;-68
2021/05/13 09:24:49;;;;;;;9.90;3.87;;;;;;;;;;4993232;28;20413;-68
2021/05/13 09:27:15;;;;;;;5.47;3.97;;;;;;;;;;4992131;28;20487;-68
2021/05/13 09:29:42;;;;;;;8.00;4.27;;;;;;;;;;4992994;28;20405;-69
2021/05/13 09:32:14;;;;;;;8.03;4.03;;;;;;;;;;4992190;28;20572;-68
2021/05/13 09:34:41;;;;;;;6.50;3.70;;;;;;;;;;4991688;28;20412;-68
2021/05/13 09:37:07;;;;;;;6.20;3.60;;;;;;;;;;4992058;28;20515;-68
2021/05/13 09:39:33;;;;;;;6.40;3.63;;;;;;;;;;4993061;28;20516;-69
2021/05/13 09:41:59;;;;;;;7.47;4.27;;;;;;;;;;4983836;28;20882;-68
2021/05/13 09:44:35;;;;;;;5.27;3.80;;;;;;;;;;4975969;28;20792;-69
2021/05/13 09:47:14;;;;;;;5.83;3.43;;;;;;;;;;4992090;28;20451;-68
2021/05/13 09:49:56;;;;;;;3.50;3.20;;;;;;;;;;4992227;28;20428;-68
2021/05/13 09:52:41;;;;;;;8.40;3.50;;;;;;;;;;4992173;28;20797;-69
2021/05/13 09:55:17;;;;;;;7.70;3.80;;;;;;;;;;4992980;28;20393;-68
2021/05/13 09:57:54;;;;;;;4.60;3.30;;;;;;;;;;4978245;28;20782;-68
2021/05/13 10:00:34;;;;;;;8.07;3.33;;;;;;;;;;4973299;28;20488;-67
2021/05/13 10:03:00;;;;;;;4.17;3.53;;;;;;;;;;4987735;28;20508;-68
2021/05/13 10:05:27;;;;;;;7.87;4.00;;;;;;;;;;4992651;28;20444;-68
2021/05/13 10:07:53;;;;;;;5.57;4.10;;;;;;;;;;4991373;28;20456;-72
2021/05/13 10:10:20;;;;;;;6.33;4.17;;;;;;;;;;4992897;28;20393;-67
2021/05/13 10:12:50;;;;;;;4.10;3.17;;;;;;;;;;4991759;28;20420;-69
2021/05/13 10:15:17;;;;;;;4.50;3.20;;;;;;;;;;4992905;28;20757;-69
2021/05/13 10:17:46;;;;;;;5.73;4.50;;;;;;;;;;4978846;28;20434;-67
2021/05/13 10:20:18;;;;;;;7.80;4.07;;;;;;;;;;4973387;28;20421;-68
2021/05/13 10:22:45;;;;;;;4.97;3.40;;;;;;;;;;4987352;28;20432;-67
2021/05/13 10:25:23;;;;;;;7.50;4.50;;;;;;;;;;4996070;28;20436;-68
2021/05/13 10:27:50;;;;;;;4.40;4.00;;;;;;;;;;4982118;28;20734;-68
2021/05/13 10:30:16;;;;;;;5.30;3.70;;;;;;;;;;4976805;28;20412;-68
2021/05/13 10:32:42;;;;;;;6.47;3.00;;;;;;;;;;4976603;28;20783;-68
2021/05/13 10:35:09;;;;;;;3.30;2.80;;;;;;;;;;4976734;28;20394;-67
2021/05/13 10:37:43;;;;;;;7.97;4.17;;;;;;;;;;4987094;28;20434;-69
2021/05/13 10:43:05;;;;;;;5.40;4.13;;;;;;;;;;4945965;28;20770;-68
2021/05/13 10:45:33;;;;;;;5.23;3.40;;;;;;;;;;4976298;28;20932;-69
2021/05/13 10:48:08;;;;;;;5.37;3.90;;;;;;;;;;4990205;28;20511;-69
2021/05/13 10:51:02;;;;;;;5.23;3.63;;;;;;;;;;4995718;28;20466;-69
2021/05/13 10:53:34;;;;;;;6.30;4.60;;;;;;;;;;4992196;28;20433;-68
2021/05/13 10:56:15;;;;;;;6.27;4.80;;;;;;;;;;4995600;28;20404;-68
2021/05/13 10:59:00;;;;;;;7.67;5.60;;;;;;;;;;4992538;28;20433;-68
2021/05/13 11:01:36;;;;;;;6.53;5.03;;;;;;;;;;4995614;28;20413;-68
2021/05/13 11:04:21;;;;;;;8.20;4.73;;;;;;;;;;4977442;28;20475;-68
2021/05/13 11:06:47;;;;;;;7.70;3.83;;;;;;;;;;4976090;28;20495;-68
2021/05/13 11:09:32;;;;;;;7.77;5.10;;;;;;;;;;4975896;28;20872;-68
2021/05/13 11:12:11;;;;;;;5.20;4.70;;;;;;;;;;4975954;28;20500;-67
2021/05/13 11:17:40;;;;;;;6.40;4.43;;;;;;;;;;4980908;28;20428;-68
2021/05/13 11:20:18;;;;;;;6.67;5.07;;;;;;;;;;4995347;28;20555;-68
2021/05/13 11:22:54;;;;;;;7.43;5.13;;;;;;;;;;4994407;28;20428;-68
2021/05/13 11:25:21;;;;;;;7.13;4.47;;;;;;;;;;4992792;28;20697;-68
2021/05/13 11:27:47;;;;;;;6.70;4.63;;;;;;;;;;4989710;28;20432;-68
2021/05/13 11:30:13;;;;;;;5.33;4.40;;;;;;;;;;4993708;28;20421;-75
2021/05/13 11:32:40;;;;;;;5.00;4.13;;;;;;;;;;4992371;28;20508;-68
2021/05/13 11:35:06;;;;;;;4.70;3.73;;;;;;;;;;4994334;28;20419;-70
2021/05/13 11:37:33;;;;;;;4.27;3.60;;;;;;;;;;4995007;28;20421;-71
2021/05/13 11:40:18;;;;;;;6.13;4.63;;;;;;;;;;4996574;28;20419;-71
2021/05/13 11:42:44;;;;;;;8.00;5.40;;;;;;;;;;4996640;28;20435;-70
2021/05/13 11:45:20;;;;;;;6.43;4.47;;;;;;;;;;4997303;28;20816;-70
2021/05/13 11:47:47;;;;;;;9.50;3.87;;;;;;;;;;5000567;28;20784;-69
2021/05/13 11:50:30;;;;;;;5.23;4.03;;;;;;;;;;4994399;28;20466;-69
2021/05/13 11:53:06;;;;;;;5.33;3.70;;;;;;;;;;4984460;28;20447;-71
2021/05/13 11:55:32;;;;;;;5.97;4.00;;;;;;;;;;4994436;28;20912;-73
2021/05/13 11:57:58;;;;;;;5.17;3.87;;;;;;;;;;4993643;28;20571;-72
2021/05/13 12:00:25;;;;;;;5.53;3.70;;;;;;;;;;4993615;28;20440;-74
2021/05/13 12:03:07;;;;;;;3.90;3.13;;;;;;;;;;4990745;28;20432;-73
2021/05/13 12:05:44;;;;;;;4.93;3.73;;;;;;;;;;4981555;28;20445;-70
2021/05/13 12:08:10;;;;;;;4.43;3.20;;;;;;;;;;4993091;28;20432;-70
2021/05/13 12:10:36;;;;;;;5.10;3.70;;;;;;;;;;4993725;28;20795;-70
2021/05/13 12:13:03;;;;;;;4.60;3.70;;;;;;;;;;4991502;28;20470;-70
2021/05/13 12:15:29;;;;;;;8.93;3.30;;;;;;;;;;4993692;28;20941;-72
2021/05/13 12:17:55;;;;;;;7.07;4.13;;;;;;;;;;4991504;28;20443;-70
2021/05/13 12:20:21;;;;;;;5.53;4.07;;;;;;;;;;4993512;28;20500;-71
2021/05/13 12:22:47;;;;;;;6.40;4.20;;;;;;;;;;4994097;28;20404;-69
2021/05/13 12:25:13;;;;;;;5.43;3.60;;;;;;;;;;4992039;28;20491;-70
2021/05/13 12:27:39;;;;;;;5.03;3.70;;;;;;;;;;4992374;28;20905;-71
2021/05/13 12:30:06;;;;;;;5.90;4.60;;;;;;;;;;4991667;28;20464;-72
2021/05/13 12:32:33;;;;;;;5.63;3.87;;;;;;;;;;4992614;28;20412;-71
2021/05/13 12:34:59;;;;;;;6.37;3.70;;;;;;;;;;4992463;28;20425;-71
2021/05/13 12:37:25;;;;;;;7.00;4.17;;;;;;;;;;4992615;28;20500;-68
2021/05/13 12:39:52;;;;;;;6.63;5.97;;;;;;;;;;4992289;28;20420;-70
2021/05/13 12:42:31;;;;;;;7.55;4.70;;;;;;;;;;4993539;28;20428;-71
2021/05/13 12:45:16;;;;;;;7.67;4.40;;;;;;;;;;4989490;28;20550;-71
2021/05/13 12:47:42;;;;;;;6.10;4.13;;;;;;;;;;4992237;28;20889;-75
2021/05/13 12:50:09;;;;;;;8.90;4.60;;;;;;;;;;4988347;28;20185;-74
2021/05/13 12:52:35;;;;;;;4.97;3.40;;;;;;;;;;4992898;28;20767;-76
2021/05/13 12:55:15;;;;;;;4.67;3.70;;;;;;;;;;4991739;28;20466;-76
2021/05/13 12:57:42;;;;;;;6.30;3.87;;;;;;;;;;4994292;28;20917;-75
2021/05/13 13:00:08;;;;;;;4.53;3.77;;;;;;;;;;4992775;28;20453;-75
2021/05/13 13:02:34;;;;;;;4.87;4.03;;;;;;;;;;4994712;28;20405;-78
2021/05/13 13:05:02;;;;;;;5.60;3.20;;;;;;;;;;4994680;28;20500;-78
2021/05/13 13:07:38;;;;;;;5.57;4.17;;;;;;;;;;4993280;28;20760;-75
2021/05/13 13:10:24;;;;;;;8.13;3.83;;;;;;;;;;4992904;28;20416;-73
2021/05/13 13:13:10;;;;;;;8.17;3.43;;;;;;;;;;4995054;28;20392;-72
2021/05/13 13:15:44;;;;;;;5.57;3.70;;;;;;;;;;4982086;28;20404;-71
2021/05/13 13:18:10;;;;;;;7.47;3.97;;;;;;;;;;4992313;28;20449;-72
2021/05/13 13:20:37;;;;;;;4.77;3.97;;;;;;;;;;4992521;28;20448;-69
2021/05/13 13:23:15;;;;;;;4.50;3.70;;;;;;;;;;4990050;28;20501;-75
2021/05/13 13:25:42;;;;;;;5.73;3.17;;;;;;;;;;4974652;28;20459;-70
2021/05/13 13:28:08;;;;;;;4.80;3.50;;;;;;;;;;4974043;28;20397;-66
2021/05/13 13:30:34;;;;;;;5.93;3.77;;;;;;;;;;4991594;28;20968;-68
2021/05/13 13:33:10;;;;;;;4.60;3.07;;;;;;;;;;4993504;28;20407;-68
2021/05/13 13:35:38;;;;;;;4.40;3.23;;;;;;;;;;4991471;28;20424;-72
2021/05/13 13:38:07;;;;;;;6.67;3.53;;;;;;;;;;4993438;28;20408;-70
2021/05/13 13:40:33;;;;;;;5.10;3.17;;;;;;;;;;4992514;28;20539;-72
2021/05/13 13:42:59;;;;;;;5.73;3.20;;;;;;;;;;4993823;28;20989;-73
2021/05/13 13:45:25;;;;;;;4.23;2.00;;;;;;;;;;4992709;28;20456;-72
2021/05/13 13:47:51;;;;;;;2.50;1.60;;;;;;;;;;4992399;28;20972;-70
2021/05/13 13:50:18;;;;;;;2.03;1.60;;;;;;;;;;4991893;28;20452;-72
2021/05/13 13:52:44;;;;;;;3.70;1.50;;;;;;;;;;4992252;28;20409;-71
2021/05/13 13:55:10;;;;;;;3.10;1.60;;;;;;;;;;4991230;28;20991;-72
2021/05/13 13:57:38;;;;;;;3.53;1.20;;;;;;;;;;4995286;28;20901;-71
2021/05/13 14:00:04;;;;;;;2.47;1.57;;;;;;;;;;4994865;28;20480;-72
2021/05/13 14:02:31;;;;;;;1.90;1.30;;;;;;;;;;4996945;28;20495;-71
2021/05/13 14:04:57;;;;;;;2.07;1.17;;;;;;;;;;4995986;28;20428;-69
2021/05/13 14:07:23;;;;;;;1.90;1.20;;;;;;;;;;4996515;28;20452;-70
2021/05/13 14:09:49;;;;;;;2.93;0.90;;;;;;;;;;4994823;28;20427;-68
2021/05/13 14:12:15;;;;;;;1.80;1.10;;;;;;;;;;4996849;28;20916;-68
2021/05/13 14:14:41;;;;;;;2.23;1.10;;;;;;;;;;4994084;28;20413;-68
2021/05/13 14:17:07;;;;;;;3.20;1.10;;;;;;;;;;4995384;28;20785;-66
2021/05/13 14:19:33;;;;;;;1.80;1.23;;;;;;;;;;4987208;28;20426;-68
2021/05/13 14:22:03;;;;;;;2.47;0.97;;;;;;;;;;4976861;28;20432;-68
2021/05/13 14:24:29;;;;;;;2.00;1.27;;;;;;;;;;4984097;28;20428;-66
2021/05/13 14:26:55;;;;;;;2.90;1.30;;;;;;;;;;4996044;28;20448;-68
2021/05/13 14:29:21;;;;;;;2.57;1.30;;;;;;;;;;4992946;28;20427;-68
2021/05/13 14:31:47;;;;;;;2.10;1.50;;;;;;;;;;4995942;28;20416;-67
2021/05/13 14:34:13;;;;;;;2.57;1.50;;;;;;;;;;4994856;28;20507;-68
2021/05/13 14:36:39;;;;;;;2.73;1.57;;;;;;;;;;4995618;28;20416;-70
2021/05/13 14:39:05;;;;;;;2.87;1.77;;;;;;;;;;4994944;28;20452;-68
2021/05/13 14:41:31;;;;;;;3.00;1.60;;;;;;;;;;4995251;28;20460;-69
2021/05/13 14:43:57;;;;;;;2.37;1.50;;;;;;;;;;4993355;28;20535;-68
2021/05/13 14:46:24;;;;;;;3.20;1.70;;;;;;;;;;4994560;28;20453;-67
2021/05/13 14:48:58;;;;;;;3.40;2.07;;;;;;;;;;4995223;28;20404;-71
2021/05/13 14:51:24;;;;;;;3.33;2.20;;;;;;;;;;4980333;28;20457;-65
2021/05/13 14:53:50;;;;;;;3.47;1.93;;;;;;;;;;4995833;28;20885;-70